Time;durP1;ratioP1;P1;durP2;ratioP2;P2;SDS_P1;SDS_P2;PMS_P1;PMS_P2;Temp;Humidity;BMP_temperature;BMP_pressure;BME280_temperature;BME280_humidity;BME280_pressure;Samples;Min_cycle;Max_cycle;Signal;HPM_P1;HPM_P2
2023/01/30 00:02:06;;;;;;;;;;;-1.90;99.90;;;;;;5064863;28;20363;-71
2023/01/30 00:04:33;;;;;;;;;;;-1.90;99.90;;;;;;5039990;28;19930;-71
2023/01/30 00:07:05;;;;;;;;;;;-2.00;99.90;;;;;;5081816;28;19924;-72
2023/01/30 00:09:36;;;;;;;;;;;-1.90;99.90;;;;;;5078647;28;19925;-72
2023/01/30 00:12:08;;;;;;;;;;;-1.90;99.90;;;;;;5063870;28;19947;-73
2023/01/30 00:14:40;;;;;;;;;;;-1.90;99.90;;;;;;5063335;28;19928;-72
2023/01/30 00:17:12;;;;;;;;;;;-1.90;99.90;;;;;;5061652;28;19924;-71
2023/01/30 00:19:44;;;;;;;;;;;-1.90;99.90;;;;;;5065469;28;19931;-70
2023/01/30 00:22:15;;;;;;;;;;;-2.00;99.90;;;;;;5066939;28;20035;-71
2023/01/30 00:24:42;;;;;;;;;;;-2.00;99.90;;;;;;5049530;28;19930;-71
2023/01/30 00:27:14;;;;;;;;;;;-1.90;99.90;;;;;;5079117;28;19978;-71
2023/01/30 00:29:46;;;;;;;;;;;-2.00;99.90;;;;;;5075616;28;20355;-71
2023/01/30 00:32:17;;;;;;;;;;;-2.00;99.90;;;;;;5069627;28;20326;-72
2023/01/30 00:34:49;;;;;;;;;;;-2.00;99.90;;;;;;5055394;28;19924;-71
2023/01/30 00:37:21;;;;;;;;;;;-2.00;99.90;;;;;;5074761;28;19924;-71
2023/01/30 00:39:53;;;;;;;;;;;-2.00;99.90;;;;;;5062591;28;20026;-71
2023/01/30 00:48:07;;;;;;;;;;;-2.00;99.90;;;;;;5057420;28;20331;-71
2023/01/30 00:50:41;;;;;;;;;;;-2.00;99.90;;;;;;5085186;28;19925;-71
2023/01/30 00:53:14;;;;;;;;;;;-1.90;99.90;;;;;;5049666;28;19970;-71
2023/01/30 00:55:42;;;;;;;;;;;-1.90;99.90;;;;;;5062731;28;19924;-71
2023/01/30 00:58:14;;;;;;;;;;;-1.90;99.90;;;;;;5070011;28;20053;-71
2023/01/30 01:00:45;;;;;;;;;;;-1.90;99.90;;;;;;5045650;28;19929;-71
2023/01/30 01:03:18;;;;;;;;;;;-1.90;99.90;;;;;;5061462;28;20450;-71
2023/01/30 01:05:45;;;;;;;;;;;-1.90;99.90;;;;;;5070192;28;19931;-71
2023/01/30 01:08:13;;;;;;;;;;;-1.90;99.90;;;;;;5065176;28;20023;-71
2023/01/30 01:10:45;;;;;;;;;;;-1.90;99.90;;;;;;5056900;28;19932;-70
2023/01/30 01:13:11;;;;;;;;;;;-1.90;99.90;;;;;;5070410;28;19930;-71
2023/01/30 01:15:43;;;;;;;;;;;-1.90;99.90;;;;;;5048699;28;19925;-71
2023/01/30 01:18:15;;;;;;;;;;;-1.90;99.90;;;;;;5053080;28;19928;-72
2023/01/30 01:20:46;;;;;;;;;;;-1.90;99.90;;;;;;5083977;28;20329;-72
2023/01/30 01:23:18;;;;;;;;;;;-1.90;99.90;;;;;;5071682;28;19925;-71
2023/01/30 01:25:50;;;;;;;;;;;-1.90;99.90;;;;;;5056759;28;19931;-71
2023/01/30 01:28:21;;;;;;;;;;;-1.90;99.90;;;;;;5060893;28;19947;-72
2023/01/30 01:30:48;;;;;;;;;;;-2.00;99.90;;;;;;5048806;28;20322;-71
2023/01/30 01:33:20;;;;;;;;;;;-2.00;99.90;;;;;;5069151;28;20405;-71
2023/01/30 01:35:55;;;;;;;;;;;-2.00;99.90;;;;;;5085196;28;19955;-71
2023/01/30 01:38:27;;;;;;;;;;;-2.00;99.90;;;;;;5045290;28;19964;-71
2023/01/30 01:41:05;;;;;;;;;;;-2.00;99.90;;;;;;5049763;28;20314;-72
2023/01/30 01:43:56;;;;;;;;;;;-1.90;99.90;;;;;;5068017;28;19928;-71
2023/01/30 01:46:32;;;;;;;;;;;-1.90;99.90;;;;;;5057464;28;20030;-71
2023/01/30 01:49:12;;;;;;;;;;;-1.90;99.90;;;;;;5052455;28;19933;-74
2023/01/30 01:51:41;;;;;;;;;;;-1.90;99.90;;;;;;5088229;28;19985;-72
2023/01/30 01:54:12;;;;;;;;;;;-1.90;99.90;;;;;;5054829;28;20496;-71
2023/01/30 01:56:46;;;;;;;;;;;-2.00;99.90;;;;;;5086722;28;20720;-72
2023/01/30 01:59:29;;;;;;;;;;;-2.00;99.90;;;;;;5050802;28;20165;-72
2023/01/30 02:02:04;;;;;;;;;;;-2.00;99.90;;;;;;5051177;28;19928;-71
2023/01/30 02:07:24;;;;;;;;;;;-2.00;99.90;;;;;;5055240;28;20071;-72
2023/01/30 02:09:51;;;;;;;;;;;-2.00;99.90;;;;;;5049367;28;19948;-71
2023/01/30 02:12:23;;;;;;;;;;;-2.00;99.90;;;;;;5083179;28;19928;-71
2023/01/30 02:14:56;;;;;;;;;;;-2.00;99.90;;;;;;5083521;28;19956;-71
2023/01/30 02:17:28;;;;;;;;;;;-2.10;99.90;;;;;;5067093;28;19932;-71
2023/01/30 02:20:09;;;;;;;;;;;-2.10;99.90;;;;;;5043805;28;19975;-72
2023/01/30 02:23:00;;;;;;;;;;;-2.10;99.90;;;;;;5049823;28;19959;-71
2023/01/30 02:25:42;;;;;;;;;;;-2.10;99.90;;;;;;5082034;28;19932;-71
2023/01/30 02:28:17;;;;;;;;;;;-2.10;99.90;;;;;;5074658;28;19928;-71
2023/01/30 02:30:48;;;;;;;;;;;-2.10;99.90;;;;;;5043924;28;19975;-71
2023/01/30 02:33:32;;;;;;;;;;;-2.10;99.90;;;;;;5043685;28;19936;-70
2023/01/30 02:36:10;;;;;;;;;;;-2.10;99.90;;;;;;5051951;28;19935;-71
2023/01/30 02:38:44;;;;;;;;;;;-2.10;99.90;;;;;;5050593;28;19943;-72
2023/01/30 02:41:33;;;;;;;;;;;-2.10;99.90;;;;;;5062962;28;19924;-70
2023/01/30 02:44:31;;;;;;;;;;;-2.10;99.90;;;;;;5071849;28;19928;-71
2023/01/30 02:47:02;;;;;;;;;;;-2.10;99.90;;;;;;5030167;28;19989;-71
2023/01/30 02:49:37;;;;;;;;;;;-2.10;99.90;;;;;;5067538;28;20309;-71
2023/01/30 02:52:10;;;;;;;;;;;-2.10;99.90;;;;;;5057416;28;19933;-72
2023/01/30 02:54:42;;;;;;;;;;;-2.10;99.90;;;;;;5054819;28;19994;-71
2023/01/30 02:57:24;;;;;;;;;;;-2.10;99.90;;;;;;5063015;28;20026;-71
2023/01/30 03:00:01;;;;;;;;;;;-2.10;99.90;;;;;;5070664;28;19952;-71
2023/01/30 03:02:49;;;;;;;;;;;-2.10;99.90;;;;;;5062122;28;20401;-72
2023/01/30 03:05:29;;;;;;;;;;;-2.20;99.90;;;;;;5067284;28;20301;-72
2023/01/30 03:08:06;;;;;;;;;;;-2.10;99.90;;;;;;5064983;28;19928;-72
2023/01/30 03:10:47;;;;;;;;;;;-2.10;99.90;;;;;;5055040;28;19963;-72
2023/01/30 03:13:22;;;;;;;;;;;-2.10;99.90;;;;;;5048087;28;20015;-72
2023/01/30 03:15:58;;;;;;;;;;;-2.10;99.90;;;;;;5060218;28;19977;-72
2023/01/30 03:18:25;;;;;;;;;;;-2.10;99.90;;;;;;5054151;28;20343;-72
2023/01/30 03:21:03;;;;;;;;;;;-2.10;99.90;;;;;;5062962;28;19970;-72
2023/01/30 03:23:34;;;;;;;;;;;-2.10;99.90;;;;;;5080365;28;19925;-72
2023/01/30 03:26:09;;;;;;;;;;;-2.10;99.90;;;;;;5071547;28;20350;-72
2023/01/30 03:28:43;;;;;;;;;;;-2.00;99.90;;;;;;5081433;28;20374;-72
2023/01/30 03:31:16;;;;;;;;;;;-2.00;99.90;;;;;;5055810;28;20023;-72
2023/01/30 03:33:47;;;;;;;;;;;-2.10;99.90;;;;;;5049315;28;19925;-72
2023/01/30 03:36:19;;;;;;;;;;;-2.00;99.90;;;;;;5080874;28;19959;-72
2023/01/30 03:38:52;;;;;;;;;;;-2.10;99.90;;;;;;5052928;28;20003;-72
2023/01/30 03:41:24;;;;;;;;;;;-2.10;99.90;;;;;;5052761;28;20310;-72
2023/01/30 03:43:56;;;;;;;;;;;-2.10;99.90;;;;;;5062199;28;19935;-72
2023/01/30 03:46:28;;;;;;;;;;;-2.00;99.90;;;;;;5065925;28;19951;-72
2023/01/30 03:49:00;;;;;;;;;;;-2.10;99.90;;;;;;5058797;28;19928;-72
2023/01/30 03:51:32;;;;;;;;;;;-2.00;99.90;;;;;;5062716;28;19931;-72
2023/01/30 03:54:04;;;;;;;;;;;-2.00;99.90;;;;;;5058724;28;19952;-72
2023/01/30 03:56:36;;;;;;;;;;;-2.00;99.90;;;;;;5077440;28;20335;-72
2023/01/30 03:59:08;;;;;;;;;;;-2.00;99.90;;;;;;5057704;28;19925;-72
2023/01/30 04:01:47;;;;;;;;;;;-2.00;99.90;;;;;;5055413;28;19958;-72
2023/01/30 04:04:19;;;;;;;;;;;-2.00;99.90;;;;;;5082881;28;20283;-72
2023/01/30 04:06:51;;;;;;;;;;;-2.00;99.90;;;;;;5054167;28;20306;-72
2023/01/30 04:09:23;;;;;;;;;;;-2.00;99.90;;;;;;5072957;28;19959;-72
2023/01/30 04:11:55;;;;;;;;;;;-2.00;99.90;;;;;;5078237;28;19924;-72
2023/01/30 04:14:31;;;;;;;;;;;-2.00;99.90;;;;;;5086464;28;19931;-72
2023/01/30 04:17:36;;;;;;;;;;;-2.10;99.90;;;;;;5093278;28;19925;-72
2023/01/30 04:20:26;;;;;;;;;;;-2.10;99.90;;;;;;5080738;28;19931;-72
2023/01/30 04:22:59;;;;;;;;;;;-2.10;99.90;;;;;;5064250;28;19925;-72
2023/01/30 04:25:31;;;;;;;;;;;-2.10;99.90;;;;;;5081545;28;19924;-72
2023/01/30 04:27:59;;;;;;;;;;;-2.10;99.90;;;;;;5085557;28;19924;-72
2023/01/30 04:30:35;;;;;;;;;;;-2.20;99.90;;;;;;5071764;28;20003;-72
2023/01/30 04:33:24;;;;;;;;;;;-2.10;99.90;;;;;;5070282;28;20010;-72
2023/01/30 04:35:58;;;;;;;;;;;-2.10;99.90;;;;;;5061127;28;20006;-72
2023/01/30 04:38:31;;;;;;;;;;;-2.10;99.90;;;;;;5054571;28;20312;-72
2023/01/30 04:41:04;;;;;;;;;;;-2.10;99.90;;;;;;5056408;28;19928;-72
2023/01/30 04:43:39;;;;;;;;;;;-2.10;99.90;;;;;;5063828;28;20011;-72
2023/01/30 04:46:14;;;;;;;;;;;-2.10;99.90;;;;;;5085658;28;20313;-72
2023/01/30 04:48:46;;;;;;;;;;;-2.00;99.90;;;;;;5079812;28;20464;-71
2023/01/30 04:51:17;;;;;;;;;;;-2.00;99.90;;;;;;5060000;28;19974;-72
2023/01/30 04:53:50;;;;;;;;;;;-2.00;99.90;;;;;;5066720;28;19959;-72
2023/01/30 04:56:17;;;;;;;;;;;-2.10;99.90;;;;;;5074438;28;19932;-71
2023/01/30 04:58:47;;;;;;;;;;;-2.10;99.90;;;;;;5067444;28;19986;-71
2023/01/30 05:01:24;;;;;;;;;;;-2.00;99.90;;;;;;5068287;28;20308;-71
2023/01/30 05:03:57;;;;;;;;;;;-2.00;99.90;;;;;;5065523;28;20358;-73
2023/01/30 05:06:29;;;;;;;;;;;-2.10;99.90;;;;;;5083986;28;19969;-72
2023/01/30 05:09:02;;;;;;;;;;;-2.00;99.90;;;;;;5060441;28;19924;-72
2023/01/30 05:11:34;;;;;;;;;;;-2.10;99.90;;;;;;5079532;28;20287;-72
2023/01/30 05:14:01;;;;;;;;;;;-2.10;99.90;;;;;;5063169;28;20018;-73
2023/01/30 05:16:32;;;;;;;;;;;-2.10;99.90;;;;;;5087320;28;19924;-72
2023/01/30 05:19:04;;;;;;;;;;;-2.10;99.90;;;;;;5085357;28;20405;-72
2023/01/30 05:21:36;;;;;;;;;;;-2.20;99.90;;;;;;5089604;28;20300;-72
2023/01/30 05:24:03;;;;;;;;;;;-2.10;99.90;;;;;;5099824;28;19924;-72
2023/01/30 05:26:35;;;;;;;;;;;-2.10;99.90;;;;;;5075155;28;19924;-75
2023/01/30 05:29:08;;;;;;;;;;;-2.00;99.90;;;;;;5065176;28;19925;-72
2023/01/30 05:31:40;;;;;;;;;;;-2.00;99.90;;;;;;5074565;28;19935;-72
2023/01/30 05:34:12;;;;;;;;;;;-2.00;99.90;;;;;;5067288;28;19971;-72
2023/01/30 05:36:42;;;;;;;;;;;-2.00;99.90;;;;;;5048295;28;19932;-72
2023/01/30 05:39:13;;;;;;;;;;;-1.90;99.90;;;;;;5056817;28;19964;-71
2023/01/30 05:41:42;;;;;;;;;;;-2.00;99.90;;;;;;5048964;28;20302;-72
2023/01/30 05:44:12;;;;;;;;;;;-1.90;99.90;;;;;;5053454;28;19986;-72
2023/01/30 05:46:41;;;;;;;;;;;-1.90;99.90;;;;;;5052817;28;19925;-73
2023/01/30 05:49:11;;;;;;;;;;;-1.90;99.90;;;;;;5056043;28;19982;-72
2023/01/30 05:51:44;;;;;;;;;;;-1.90;99.90;;;;;;5061058;28;19924;-72
2023/01/30 05:54:16;;;;;;;;;;;-1.90;99.90;;;;;;5054999;28;19928;-72
2023/01/30 05:57:07;;;;;;;;;;;-1.90;99.90;;;;;;5077432;28;19928;-72
2023/01/30 05:59:44;;;;;;;;;;;-1.90;99.90;;;;;;5080175;28;19928;-72
2023/01/30 06:02:26;;;;;;;;;;;-1.90;99.90;;;;;;5062838;28;20394;-72
2023/01/30 06:05:14;;;;;;;;;;;-1.90;99.90;;;;;;5069874;28;19924;-72
2023/01/30 06:08:07;;;;;;;;;;;-1.90;99.90;;;;;;5072879;28;20003;-72
2023/01/30 06:10:36;;;;;;;;;;;-1.90;99.90;;;;;;5082966;28;19973;-72
2023/01/30 06:13:12;;;;;;;;;;;-1.90;99.90;;;;;;5089479;28;19924;-72
2023/01/30 06:15:41;;;;;;;;;;;-1.90;99.90;;;;;;5063674;28;19932;-72
2023/01/30 06:18:13;;;;;;;;;;;-1.80;99.90;;;;;;5090650;28;20383;-72
2023/01/30 06:21:02;;;;;;;;;;;-1.80;99.90;;;;;;5060737;28;19925;-72
2023/01/30 06:30:08;;;;;;;;;;;-1.70;99.90;;;;;;5078959;28;19930;-72
2023/01/30 06:33:13;;;;;;;;;;;-1.70;99.90;;;;;;5063408;28;20335;-72
2023/01/30 06:36:25;;;;;;;;;;;-1.70;99.90;;;;;;5084453;28;20698;-72
2023/01/30 06:39:02;;;;;;;;;;;-1.70;99.90;;;;;;5075423;28;19924;-73
2023/01/30 06:41:51;;;;;;;;;;;-1.70;99.90;;;;;;5083112;28;19924;-72
2023/01/30 06:44:29;;;;;;;;;;;-1.60;99.90;;;;;;5068398;28;19925;-72
2023/01/30 06:46:59;;;;;;;;;;;-1.70;99.90;;;;;;5047353;28;20421;-72
2023/01/30 06:49:34;;;;;;;;;;;-1.60;99.90;;;;;;5078023;28;19986;-72
2023/01/30 06:52:04;;;;;;;;;;;-1.60;99.90;;;;;;5077886;28;20398;-72
2023/01/30 06:54:33;;;;;;;;;;;-1.60;99.90;;;;;;5062300;28;19978;-72
2023/01/30 06:57:04;;;;;;;;;;;-1.60;99.90;;;;;;5033843;28;19939;-73
2023/01/30 06:59:35;;;;;;;;;;;-1.60;99.90;;;;;;5054977;28;19924;-72
2023/01/30 07:02:12;;;;;;;;;;;-1.60;99.90;;;;;;5050545;28;19931;-72
2023/01/30 07:04:42;;;;;;;;;;;-1.60;99.90;;;;;;5053142;28;19950;-72
2023/01/30 07:07:11;;;;;;;;;;;-1.60;99.90;;;;;;5096559;28;19931;-72
2023/01/30 07:09:46;;;;;;;;;;;-1.60;99.90;;;;;;5068545;28;20373;-73
2023/01/30 07:12:19;;;;;;;;;;;-1.50;99.90;;;;;;5042028;28;20315;-72
2023/01/30 07:14:52;;;;;;;;;;;-1.50;99.90;;;;;;5045554;28;19928;-72
2023/01/30 07:17:21;;;;;;;;;;;-1.60;99.90;;;;;;5045160;28;20021;-72
2023/01/30 07:19:57;;;;;;;;;;;-1.50;99.90;;;;;;5053620;28;19935;-72
2023/01/30 07:22:28;;;;;;;;;;;-1.60;99.90;;;;;;5048989;28;19935;-72
2023/01/30 07:24:56;;;;;;;;;;;-1.60;99.90;;;;;;5052888;28;19934;-72
2023/01/30 07:27:25;;;;;;;;;;;-1.60;99.90;;;;;;5078210;28;19924;-72
2023/01/30 07:29:58;;;;;;;;;;;-1.60;99.90;;;;;;5074437;28;19996;-72
2023/01/30 07:32:37;;;;;;;;;;;-1.60;99.90;;;;;;5060446;28;19932;-72
2023/01/30 07:35:13;;;;;;;;;;;-1.60;99.90;;;;;;5062442;28;19933;-72
2023/01/30 07:38:02;;;;;;;;;;;-1.50;99.90;;;;;;5070830;28;19935;-72
2023/01/30 07:40:30;;;;;;;;;;;-1.60;99.90;;;;;;5071735;28;19939;-72
2023/01/30 07:43:01;;;;;;;;;;;-1.50;99.90;;;;;;5056808;28;19924;-72
2023/01/30 07:45:34;;;;;;;;;;;-1.50;99.90;;;;;;5071528;28;19946;-73
2023/01/30 07:48:07;;;;;;;;;;;-1.50;99.90;;;;;;5072150;28;19924;-73
2023/01/30 07:50:37;;;;;;;;;;;-1.40;99.90;;;;;;5048947;28;20631;-73
2023/01/30 07:53:09;;;;;;;;;;;-1.50;99.90;;;;;;5065886;28;19928;-72
2023/01/30 07:55:43;;;;;;;;;;;-1.40;99.90;;;;;;5066179;28;19954;-72
2023/01/30 07:58:15;;;;;;;;;;;-1.40;99.90;;;;;;5040602;28;19928;-72
2023/01/30 08:00:46;;;;;;;;;;;-1.40;99.90;;;;;;5070317;28;19924;-71
2023/01/30 08:03:18;;;;;;;;;;;-1.40;99.90;;;;;;5056946;28;19924;-71
2023/01/30 08:05:50;;;;;;;;;;;-1.40;99.90;;;;;;5064765;28;20341;-71
2023/01/30 08:08:16;;;;;;;;;;;-1.40;99.90;;;;;;5058576;28;19929;-72
2023/01/30 08:10:48;;;;;;;;;;;-1.40;99.90;;;;;;5071359;28;20276;-71
2023/01/30 08:13:19;;;;;;;;;;;-1.30;99.90;;;;;;5061310;28;20443;-71
2023/01/30 08:15:46;;;;;;;;;;;-1.30;99.90;;;;;;5059801;28;19925;-71
2023/01/30 08:18:12;;;;;;;;;;;-1.30;99.90;;;;;;5068407;28;19924;-71
2023/01/30 08:20:44;;;;;;;;;;;-1.40;99.90;;;;;;5063288;28;19924;-71
2023/01/30 08:23:11;;;;;;;;;;;-1.30;99.90;;;;;;5057506;28;19934;-71
2023/01/30 08:25:43;;;;;;;;;;;-1.30;99.90;;;;;;5061991;28;19931;-74
2023/01/30 08:28:14;;;;;;;;;;;-1.30;99.90;;;;;;5062956;28;20401;-71
2023/01/30 08:30:41;;;;;;;;;;;-1.20;99.90;;;;;;5084676;28;20483;-71
2023/01/30 08:33:13;;;;;;;;;;;-1.20;99.90;;;;;;5072763;28;19928;-71
2023/01/30 08:35:45;;;;;;;;;;;-1.10;99.90;;;;;;5084883;28;19924;-72
2023/01/30 08:38:17;;;;;;;;;;;-1.00;99.90;;;;;;5078774;28;19928;-71
2023/01/30 08:40:48;;;;;;;;;;;-0.90;99.90;;;;;;5054038;28;20399;-72
2023/01/30 08:43:20;;;;;;;;;;;-0.90;99.90;;;;;;5067164;28;19924;-70
2023/01/30 08:45:52;;;;;;;;;;;-0.80;99.90;;;;;;5078366;28;19928;-70
2023/01/30 08:48:24;;;;;;;;;;;-0.80;99.90;;;;;;5055741;28;19929;-70
2023/01/30 08:50:56;;;;;;;;;;;-0.70;99.90;;;;;;5079884;28;19924;-71
2023/01/30 08:53:27;;;;;;;;;;;-0.70;99.90;;;;;;5056596;28;20413;-72
2023/01/30 08:55:59;;;;;;;;;;;-0.60;99.90;;;;;;5067826;28;19928;-71
2023/01/30 08:58:30;;;;;;;;;;;-0.40;99.90;;;;;;5065895;28;19925;-71
2023/01/30 09:00:57;;;;;;;;;;;-0.30;99.90;;;;;;5082643;28;19925;-71
2023/01/30 09:03:28;;;;;;;;;;;-0.30;99.90;;;;;;5086994;28;19928;-70
2023/01/30 09:06:00;;;;;;;;;;;-0.30;99.90;;;;;;5066803;28;19929;-73
2023/01/30 09:08:27;;;;;;;;;;;-0.30;99.90;;;;;;5097535;28;20383;-73
2023/01/30 09:10:59;;;;;;;;;;;-0.30;99.90;;;;;;5086281;28;20687;-72
2023/01/30 09:13:27;;;;;;;;;;;-0.20;99.90;;;;;;5072398;28;19931;-72
2023/01/30 09:15:56;;;;;;;;;;;-0.20;99.90;;;;;;5058136;28;20019;-73
2023/01/30 09:18:24;;;;;;;;;;;-0.10;99.90;;;;;;5082783;28;19928;-72
2023/01/30 09:21:01;;;;;;;;;;;0.00;99.90;;;;;;5068577;28;20336;-72
2023/01/30 09:23:30;;;;;;;;;;;0.00;99.90;;;;;;5087948;28;19931;-72
2023/01/30 09:25:59;;;;;;;;;;;0.00;99.90;;;;;;5069383;28;19927;-73
2023/01/30 09:28:27;;;;;;;;;;;0.00;99.90;;;;;;5069243;28;19931;-72
2023/01/30 09:30:56;;;;;;;;;;;0.00;99.90;;;;;;5062492;28;19924;-72
2023/01/30 09:33:25;;;;;;;;;;;0.10;99.90;;;;;;5042551;28;20018;-72
2023/01/30 09:35:53;;;;;;;;;;;0.20;99.90;;;;;;5063164;28;19935;-72
2023/01/30 09:38:22;;;;;;;;;;;0.30;99.90;;;;;;5070460;28;19928;-72
2023/01/30 09:40:59;;;;;;;;;;;0.30;99.90;;;;;;5064948;28;19936;-72
2023/01/30 09:43:43;;;;;;;;;;;0.40;99.90;;;;;;5048535;28;19929;-72
2023/01/30 09:46:23;;;;;;;;;;;0.40;99.90;;;;;;5064979;28;19924;-72
2023/01/30 09:49:03;;;;;;;;;;;0.50;99.90;;;;;;5073142;28;20018;-73
2023/01/30 09:51:36;;;;;;;;;;;0.50;99.90;;;;;;5060858;28;19924;-73
2023/01/30 09:54:15;;;;;;;;;;;0.50;99.90;;;;;;5053373;28;19931;-73
2023/01/30 09:59:49;;;;;;;;;;;0.50;99.90;;;;;;5098869;28;19924;-72
2023/01/30 10:02:54;;;;;;;;;;;0.50;99.90;;;;;;5090853;28;19928;-72
2023/01/30 10:08:36;;;;;;;;;;;0.60;99.90;;;;;;5079426;28;20019;-73
2023/01/30 10:11:42;;;;;;;;;;;0.60;99.90;;;;;;5067886;28;19916;-72
2023/01/30 10:14:31;;;;;;;;;;;0.50;99.90;;;;;;5045913;28;20026;-72
2023/01/30 10:17:33;;;;;;;;;;;0.60;99.90;;;;;;5095433;28;20023;-72
2023/01/30 10:20:35;;;;;;;;;;;0.70;99.90;;;;;;5069623;28;19935;-72
2023/01/30 10:23:47;;;;;;;;;;;0.80;99.90;;;;;;5080265;28;19935;-72
2023/01/30 10:26:20;;;;;;;;;;;0.90;99.90;;;;;;5078350;28;19925;-72
2023/01/30 10:28:53;;;;;;;;;;;0.90;99.90;;;;;;5076920;28;19939;-73
2023/01/30 10:31:25;;;;;;;;;;;0.80;99.90;;;;;;5066656;28;19928;-72
2023/01/30 10:34:02;;;;;;;;;;;0.90;99.90;;;;;;5051140;28;19928;-72
2023/01/30 10:36:40;;;;;;;;;;;1.00;99.90;;;;;;5077423;28;20031;-73
2023/01/30 10:39:18;;;;;;;;;;;1.20;99.90;;;;;;5059275;28;19924;-73
2023/01/30 10:41:54;;;;;;;;;;;1.40;99.90;;;;;;5061035;28;20383;-73
2023/01/30 10:44:25;;;;;;;;;;;1.50;99.90;;;;;;5075289;28;20375;-73
2023/01/30 10:47:12;;;;;;;;;;;1.50;99.90;;;;;;5054819;28;19933;-73
2023/01/30 10:49:55;;;;;;;;;;;1.60;99.90;;;;;;5069536;28;19929;-73
2023/01/30 10:52:35;;;;;;;;;;;1.70;99.90;;;;;;5071887;28;19928;-72
2023/01/30 10:55:30;;;;;;;;;;;1.80;99.90;;;;;;5061550;28;19940;-71
2023/01/30 10:58:06;;;;;;;;;;;1.80;99.90;;;;;;5061410;28;19981;-71
2023/01/30 11:00:40;;;;;;;;;;;1.70;99.90;;;;;;5064238;28;19985;-71
2023/01/30 11:03:26;;;;;;;;;;;1.70;99.90;;;;;;5067885;28;19928;-71
2023/01/30 11:06:06;;;;;;;;;;;1.70;99.90;;;;;;5061019;28;19923;-71
2023/01/30 11:08:35;;;;;;;;;;;1.80;99.90;;;;;;5059968;28;19924;-71
2023/01/30 11:11:25;;;;;;;;;;;1.80;99.90;;;;;;5079623;28;19981;-71
2023/01/30 11:14:00;;;;;;;;;;;1.80;99.90;;;;;;5069799;28;19930;-71
2023/01/30 11:16:42;;;;;;;;;;;1.70;99.90;;;;;;5052789;28;19928;-71
2023/01/30 11:19:13;;;;;;;;;;;1.60;99.90;;;;;;5051563;28;20039;-71
2023/01/30 11:21:50;;;;;;;;;;;1.60;99.90;;;;;;5071281;28;19955;-71
2023/01/30 11:24:47;;;;;;;;;;;1.50;99.90;;;;;;5067748;28;20390;-71
2023/01/30 11:27:35;;;;;;;;;;;1.50;99.90;;;;;;5069430;28;20444;-71
2023/01/30 11:30:28;;;;;;;;;;;1.40;99.90;;;;;;5064299;28;19925;-71
2023/01/30 11:33:16;;;;;;;;;;;1.40;99.90;;;;;;5063801;28;19928;-71
2023/01/30 11:36:03;;;;;;;;;;;1.50;99.90;;;;;;5067101;28;20550;-71
2023/01/30 11:38:37;;;;;;;;;;;1.50;99.90;;;;;;5070253;28;19978;-71
2023/01/30 11:41:20;;;;;;;;;;;1.50;99.90;;;;;;5065658;28;20387;-70
2023/01/30 11:44:05;;;;;;;;;;;1.40;99.90;;;;;;5076706;28;19928;-71
2023/01/30 11:46:40;;;;;;;;;;;1.40;99.90;;;;;;5060491;28;19978;-71
2023/01/30 11:49:13;;;;;;;;;;;1.50;99.90;;;;;;5088100;28;20337;-70
2023/01/30 11:51:46;;;;;;;;;;;1.50;99.90;;;;;;5064579;28;19932;-71
2023/01/30 11:54:41;;;;;;;;;;;1.40;99.90;;;;;;5080736;28;19928;-71
2023/01/30 11:57:52;;;;;;;;;;;1.40;99.90;;;;;;5069100;28;19975;-71
2023/01/30 12:00:42;;;;;;;;;;;1.40;99.90;;;;;;5046782;28;19930;-71
2023/01/30 12:03:49;;;;;;;;;;;1.50;99.90;;;;;;5077847;28;19967;-71
2023/01/30 12:06:30;;;;;;;;;;;1.50;99.90;;;;;;5066484;28;19992;-70
2023/01/30 12:09:40;;;;;;;;;;;1.50;99.90;;;;;;5082655;28;19976;-71
2023/01/30 12:12:28;;;;;;;;;;;1.60;99.90;;;;;;5067962;28;19928;-71
2023/01/30 12:15:31;;;;;;;;;;;1.60;99.90;;;;;;5052390;28;19925;-71
2023/01/30 12:18:37;;;;;;;;;;;1.60;99.90;;;;;;5083119;28;19972;-71
2023/01/30 12:21:19;;;;;;;;;;;1.60;99.90;;;;;;5073495;28;19928;-71
2023/01/30 12:24:15;;;;;;;;;;;1.60;99.90;;;;;;5060091;28;20421;-71
2023/01/30 12:27:24;;;;;;;;;;;1.60;99.90;;;;;;5052361;28;19932;-71
2023/01/30 12:30:30;;;;;;;;;;;1.70;99.90;;;;;;5079085;28;19946;-70
2023/01/30 12:33:42;;;;;;;;;;;1.80;99.90;;;;;;5080113;28;19928;-72
2023/01/30 12:36:44;;;;;;;;;;;1.80;99.90;;;;;;5081956;28;20015;-71
2023/01/30 12:40:05;;;;;;;;;;;1.80;99.90;;;;;;5085164;28;20345;-71
2023/01/30 12:43:19;;;;;;;;;;;1.80;99.90;;;;;;5071517;28;19978;-71
2023/01/30 12:45:56;;;;;;;;;;;1.80;99.90;;;;;;5013082;28;19936;-71
2023/01/30 12:48:51;;;;;;;;;;;1.80;99.90;;;;;;5093300;28;19928;-71
2023/01/30 12:51:36;;;;;;;;;;;1.90;99.90;;;;;;5074003;28;19924;-71
2023/01/30 12:54:28;;;;;;;;;;;1.80;99.90;;;;;;5084194;28;19932;-71
2023/01/30 12:57:21;;;;;;;;;;;1.80;99.90;;;;;;5060067;28;19928;-71
2023/01/30 13:00:01;;;;;;;;;;;1.80;99.90;;;;;;5067325;28;20023;-70
2023/01/30 13:02:50;;;;;;;;;;;1.80;99.90;;;;;;5064253;28;19929;-71
2023/01/30 13:05:47;;;;;;;;;;;1.80;99.90;;;;;;5073676;28;20429;-71
2023/01/30 13:08:53;;;;;;;;;;;1.80;99.90;;;;;;5071595;28;20680;-72
2023/01/30 13:11:46;;;;;;;;;;;1.90;99.90;;;;;;5077920;28;19981;-71
2023/01/30 13:14:58;;;;;;;;;;;1.90;99.90;;;;;;5073337;28;20010;-71
2023/01/30 13:17:41;;;;;;;;;;;2.00;99.90;;;;;;5050377;28;19973;-71
2023/01/30 13:20:45;;;;;;;;;;;2.10;99.90;;;;;;5070591;28;20298;-71
2023/01/30 13:23:26;;;;;;;;;;;2.10;99.90;;;;;;5066193;28;19925;-71
2023/01/30 13:26:22;;;;;;;;;;;2.10;99.90;;;;;;5069865;28;20394;-71
2023/01/30 13:29:38;;;;;;;;;;;2.10;99.90;;;;;;5076584;28;19947;-71
2023/01/30 13:32:38;;;;;;;;;;;2.10;99.90;;;;;;5070758;28;19970;-71
2023/01/30 13:35:22;;;;;;;;;;;2.10;99.90;;;;;;5058900;28;20015;-71
2023/01/30 13:41:22;;;;;;;;;;;2.20;99.90;;;;;;5077335;28;19931;-72
2023/01/30 13:44:22;;;;;;;;;;;2.20;99.90;;;;;;5055022;28;19986;-72
2023/01/30 13:47:03;;;;;;;;;;;2.20;99.90;;;;;;5047794;28;20299;-71
2023/01/30 13:50:41;;;;;;;;;;;2.20;99.90;;;;;;5086772;28;20443;-71
2023/01/30 13:53:46;;;;;;;;;;;2.20;99.90;;;;;;5073389;28;19943;-71
2023/01/30 13:56:46;;;;;;;;;;;2.20;99.90;;;;;;5086907;28;19924;-71
2023/01/30 13:59:46;;;;;;;;;;;2.20;99.90;;;;;;5066068;28;19924;-71
2023/01/30 14:02:21;;;;;;;;;;;2.20;99.90;;;;;;5078056;28;19931;-71
2023/01/30 14:04:57;;;;;;;;;;;2.20;99.90;;;;;;5060127;28;19929;-72
2023/01/30 14:07:46;;;;;;;;;;;2.20;99.90;;;;;;5037971;28;19920;-71
2023/01/30 14:10:26;;;;;;;;;;;2.20;99.90;;;;;;5057544;28;20028;-71
2023/01/30 14:13:06;;;;;;;;;;;2.20;99.90;;;;;;5060822;28;19925;-71
2023/01/30 14:16:05;;;;;;;;;;;2.10;99.90;;;;;;5062935;28;19932;-71
2023/01/30 14:19:18;;;;;;;;;;;2.10;99.90;;;;;;5072753;28;19947;-71
2023/01/30 14:22:03;;;;;;;;;;;2.10;99.90;;;;;;5068009;28;20416;-71
2023/01/30 14:24:36;;;;;;;;;;;2.00;99.90;;;;;;5070727;28;19947;-71
2023/01/30 14:27:32;;;;;;;;;;;2.00;99.90;;;;;;5075812;28;20052;-71
2023/01/30 14:30:33;;;;;;;;;;;2.00;99.90;;;;;;5068943;28;20372;-71
2023/01/30 14:33:52;;;;;;;;;;;1.90;99.90;;;;;;5072372;28;19931;-71
2023/01/30 14:37:15;;;;;;;;;;;1.90;99.90;;;;;;5079949;28;20402;-71
2023/01/30 14:39:56;;;;;;;;;;;1.90;99.90;;;;;;5062588;28;20295;-71
2023/01/30 14:42:34;;;;;;;;;;;1.80;99.90;;;;;;5076257;28;19971;-71
2023/01/30 14:45:41;;;;;;;;;;;1.80;99.90;;;;;;5087179;28;19939;-71
2023/01/30 14:48:50;;;;;;;;;;;1.80;99.90;;;;;;5063444;28;19924;-70
2023/01/30 14:51:52;;;;;;;;;;;1.80;99.90;;;;;;5065584;28;19931;-73
2023/01/30 14:54:43;;;;;;;;;;;1.70;99.90;;;;;;5070522;28;19925;-70
2023/01/30 14:57:38;;;;;;;;;;;1.70;99.90;;;;;;5070609;28;19939;-71
2023/01/30 15:00:35;;;;;;;;;;;1.70;99.90;;;;;;5076207;28;19912;-70
2023/01/30 15:03:32;;;;;;;;;;;1.60;99.90;;;;;;5081871;28;19924;-70
2023/01/30 15:06:50;;;;;;;;;;;1.60;99.90;;;;;;5069319;28;19930;-71
2023/01/30 15:12:46;;;;;;;;;;;1.50;99.90;;;;;;5062877;28;19973;-73
2023/01/30 15:15:30;;;;;;;;;;;1.50;99.90;;;;;;5064801;28;20012;-70
2023/01/30 15:21:26;;;;;;;;;;;1.50;99.90;;;;;;5066013;28;19928;-73
2023/01/30 15:24:49;;;;;;;;;;;1.50;99.90;;;;;;5075043;28;20298;-70
2023/01/30 15:33:47;;;;;;;;;;;1.40;99.90;;;;;;5075695;28;19925;-70
2023/01/30 15:36:32;;;;;;;;;;;1.40;99.90;;;;;;5055735;28;19928;-71
2023/01/30 15:39:22;;;;;;;;;;;1.40;99.90;;;;;;5080857;28;19924;-70
2023/01/30 15:42:05;;;;;;;;;;;1.40;99.90;;;;;;5090359;28;19950;-73
2023/01/30 15:44:39;;;;;;;;;;;1.30;99.90;;;;;;5058710;28;19931;-70
2023/01/30 15:47:10;;;;;;;;;;;1.40;99.90;;;;;;5061932;28;20027;-70
2023/01/30 15:49:58;;;;;;;;;;;1.40;99.90;;;;;;5040961;28;19928;-70
2023/01/30 15:52:35;;;;;;;;;;;1.40;99.90;;;;;;5061394;28;20382;-70
2023/01/30 15:55:16;;;;;;;;;;;1.40;99.90;;;;;;5058886;28;19978;-73
2023/01/30 15:57:55;;;;;;;;;;;1.40;99.90;;;;;;5051669;28;19970;-73
2023/01/30 16:00:27;;;;;;;;;;;1.30;99.90;;;;;;5066236;28;20305;-72
2023/01/30 16:03:05;;;;;;;;;;;1.30;99.90;;;;;;5070802;28;19936;-72
2023/01/30 16:05:34;;;;;;;;;;;1.30;99.90;;;;;;5050673;28;20264;-72
2023/01/30 16:08:17;;;;;;;;;;;1.20;99.90;;;;;;5071712;28;19974;-72
2023/01/30 16:11:00;;;;;;;;;;;1.20;99.90;;;;;;5059249;28;19928;-72